Time;durP1;ratioP1;P1;durP2;ratioP2;P2;SDS_P1;SDS_P2;PMS_P1;PMS_P2;Temp;Humidity;BMP_temperature;BMP_pressure;BME280_temperature;BME280_humidity;BME280_pressure;Samples;Min_cycle;Max_cycle;Signal;HPM_P1;HPM_P2
2023/06/16 00:00:37;;;;;;;1.92;1.58;;;17.30;99.90;;;;;;5004438;28;20116;-87
2023/06/16 00:03:05;;;;;;;1.95;1.50;;;17.20;99.90;;;;;;4987252;28;20078;-88
2023/06/16 00:05:34;;;;;;;3.28;1.75;;;17.20;99.90;;;;;;5003460;28;20050;-87
2023/06/16 00:08:03;;;;;;;2.10;1.85;;;17.10;99.90;;;;;;5004363;28;20136;-86
2023/06/16 00:10:30;;;;;;;2.20;1.83;;;17.10;99.90;;;;;;5003658;28;20422;-87
2023/06/16 00:12:57;;;;;;;2.95;2.03;;;17.10;99.90;;;;;;4987588;28;20204;-88
2023/06/16 00:15:24;;;;;;;2.08;1.88;;;17.00;99.90;;;;;;4987786;28;20054;-87
2023/06/16 00:17:51;;;;;;;2.80;2.10;;;17.00;99.90;;;;;;5003909;28;20440;-86
2023/06/16 00:20:22;;;;;;;2.20;1.70;;;16.80;99.90;;;;;;5003771;28;20054;-87
2023/06/16 00:22:48;;;;;;;2.78;1.77;;;16.80;99.90;;;;;;4988489;28;20531;-87
2023/06/16 00:25:17;;;;;;;2.38;1.88;;;16.80;99.90;;;;;;5003989;28;20087;-87
2023/06/16 00:27:44;;;;;;;2.55;2.03;;;16.80;99.90;;;;;;5002949;28;20058;-87
2023/06/16 00:30:12;;;;;;;2.45;1.67;;;16.80;99.90;;;;;;5004785;28;20057;-87
2023/06/16 00:32:39;;;;;;;2.05;1.75;;;16.80;99.90;;;;;;4987284;28;20081;-88
2023/06/16 00:35:07;;;;;;;2.50;2.05;;;16.70;99.90;;;;;;5003275;28;20038;-86
2023/06/16 00:37:34;;;;;;;2.38;1.90;;;16.70;99.90;;;;;;4992649;28;20050;-86
2023/06/16 00:40:01;;;;;;;2.33;1.67;;;16.60;99.90;;;;;;5003768;28;20057;-88
2023/06/16 00:42:27;;;;;;;2.25;2.00;;;16.60;99.90;;;;;;5003500;28;20128;-88
2023/06/16 00:44:54;;;;;;;2.15;1.92;;;16.50;99.90;;;;;;5003360;28;20049;-87
2023/06/16 00:47:21;;;;;;;2.33;1.80;;;16.40;99.90;;;;;;5002717;28;20149;-86
2023/06/16 00:49:48;;;;;;;2.50;1.75;;;16.40;99.90;;;;;;4985047;28;20057;-88
2023/06/16 00:52:15;;;;;;;3.05;1.90;;;16.30;99.90;;;;;;4999142;28;20064;-87
2023/06/16 00:54:42;;;;;;;2.22;1.70;;;16.40;99.90;;;;;;5004682;28;20042;-87
2023/06/16 00:57:09;;;;;;;3.28;1.85;;;16.40;99.90;;;;;;4986660;28;20490;-88
2023/06/16 00:59:35;;;;;;;2.75;1.50;;;16.40;99.90;;;;;;5003368;28;20349;-87
2023/06/16 01:02:03;;;;;;;2.17;1.65;;;16.40;99.90;;;;;;4986863;28;20046;-87
2023/06/16 01:04:29;;;;;;;2.38;2.03;;;16.30;99.90;;;;;;5004474;28;20105;-87
2023/06/16 01:07:09;;;;;;;2.78;1.95;;;16.30;99.90;;;;;;5002793;28;20060;-87
2023/06/16 01:10:16;;;;;;;3.25;2.05;;;16.30;99.90;;;;;;5003173;28;20073;-86
2023/06/16 01:13:01;;;;;;;2.03;1.75;;;16.30;99.90;;;;;;4973133;28;20050;-87
2023/06/16 01:15:28;;;;;;;2.83;1.80;;;16.30;99.90;;;;;;5003627;28;20541;-87
2023/06/16 01:17:57;;;;;;;2.58;2.10;;;16.30;99.90;;;;;;5003286;28;20065;-88
2023/06/16 01:20:41;;;;;;;2.28;1.77;;;16.20;99.90;;;;;;5002247;28;20057;-87
2023/06/16 01:23:33;;;;;;;2.05;1.77;;;16.10;99.90;;;;;;4988376;28;20053;-87
2023/06/16 01:26:03;;;;;;;2.80;1.95;;;16.00;99.90;;;;;;4991912;28;20054;-87
2023/06/16 01:28:31;;;;;;;2.75;1.95;;;16.00;99.90;;;;;;4975604;28;20053;-85
2023/06/16 01:30:59;;;;;;;2.22;1.75;;;15.90;99.90;;;;;;4988998;28;20046;-86
2023/06/16 01:33:26;;;;;;;2.67;1.58;;;15.90;99.90;;;;;;4993359;28;20398;-87
2023/06/16 01:35:54;;;;;;;2.20;1.80;;;15.80;99.90;;;;;;5007879;28;20454;-86
2023/06/16 01:38:24;;;;;;;2.85;1.90;;;15.80;99.90;;;;;;5008903;28;20076;-86
2023/06/16 01:40:51;;;;;;;2.55;2.13;;;15.80;99.90;;;;;;4992486;28;20091;-86
2023/06/16 01:43:19;;;;;;;2.40;2.20;;;15.70;99.90;;;;;;4992366;28;20117;-86
2023/06/16 01:45:46;;;;;;;2.30;1.80;;;15.60;99.90;;;;;;5009819;28;20115;-86
2023/06/16 01:48:13;;;;;;;2.10;1.80;;;15.60;99.90;;;;;;4997782;28;20050;-86
2023/06/16 01:50:40;;;;;;;3.03;2.55;;;15.50;99.90;;;;;;5011510;28;20405;-86
2023/06/16 01:53:07;;;;;;;3.10;2.08;;;15.50;99.90;;;;;;5011613;28;20120;-86
2023/06/16 01:55:34;;;;;;;2.17;1.92;;;15.60;99.90;;;;;;5011334;28;20534;-87
2023/06/16 01:58:00;;;;;;;2.47;1.98;;;15.60;99.90;;;;;;4994146;28;20100;-85
2023/06/16 02:00:29;;;;;;;2.42;2.10;;;15.60;99.90;;;;;;4994786;28;20049;-86
2023/06/16 02:03:09;;;;;;;2.05;1.85;;;15.60;99.90;;;;;;4994675;28;20100;-86
2023/06/16 02:05:36;;;;;;;2.40;1.90;;;15.50;99.90;;;;;;4994509;28;20046;-86
2023/06/16 02:08:03;;;;;;;2.33;1.70;;;15.50;99.90;;;;;;4994296;28;20050;-86
2023/06/16 02:10:30;;;;;;;3.50;2.35;;;15.40;99.90;;;;;;5012777;28;20057;-86
2023/06/16 02:12:57;;;;;;;2.85;2.25;;;15.40;99.90;;;;;;5010636;28;20053;-86
2023/06/16 02:15:23;;;;;;;3.45;2.10;;;15.40;99.90;;;;;;4994640;28;20053;-86
2023/06/16 02:17:51;;;;;;;1.70;1.50;;;15.40;99.90;;;;;;4994690;28;20053;-86
2023/06/16 02:20:19;;;;;;;2.30;1.40;;;15.40;99.90;;;;;;5011964;28;20049;-85
2023/06/16 02:22:46;;;;;;;2.92;1.90;;;15.30;99.90;;;;;;4978782;28;20049;-87
2023/06/16 02:25:13;;;;;;;2.63;1.80;;;15.30;99.90;;;;;;4994492;28;20112;-85
2023/06/16 02:27:40;;;;;;;2.33;1.75;;;15.20;99.90;;;;;;4977956;28;20050;-86
2023/06/16 02:30:08;;;;;;;2.15;1.60;;;15.20;99.90;;;;;;5012092;28;20160;-86
2023/06/16 02:32:36;;;;;;;2.78;2.00;;;15.20;99.90;;;;;;4994274;28;20069;-86
2023/06/16 02:35:07;;;;;;;1.75;1.35;;;15.20;99.90;;;;;;4994211;28;20653;-86
2023/06/16 02:37:35;;;;;;;2.35;1.80;;;15.20;99.90;;;;;;4994047;28;20061;-86
2023/06/16 02:40:04;;;;;;;1.92;1.58;;;15.20;99.90;;;;;;5010309;28;20042;-87
2023/06/16 02:42:31;;;;;;;2.50;2.10;;;15.20;99.90;;;;;;5009336;28;20100;-86
2023/06/16 02:44:58;;;;;;;2.17;1.75;;;15.10;99.90;;;;;;4993693;28;20042;-86
2023/06/16 02:47:25;;;;;;;2.15;1.80;;;15.10;99.90;;;;;;4993112;28;20061;-86
2023/06/16 02:49:54;;;;;;;2.92;1.77;;;15.00;99.90;;;;;;4993354;28;20046;-85
2023/06/16 02:52:21;;;;;;;2.10;1.80;;;15.00;99.90;;;;;;4993101;28;20136;-85
2023/06/16 02:54:48;;;;;;;3.22;1.98;;;15.00;99.90;;;;;;5010563;28;20095;-83
2023/06/16 02:57:15;;;;;;;2.00;1.45;;;15.00;99.90;;;;;;5009207;28;20512;-85
2023/06/16 02:59:42;;;;;;;2.30;1.60;;;14.90;99.90;;;;;;5009898;28;20065;-86
2023/06/16 03:02:09;;;;;;;2.40;1.65;;;14.90;99.90;;;;;;5009346;28;20092;-86
2023/06/16 03:04:36;;;;;;;2.55;2.00;;;14.90;99.90;;;;;;5009949;28;20057;-85
2023/06/16 03:07:02;;;;;;;1.88;1.50;;;14.90;99.90;;;;;;5009204;28;20119;-86
2023/06/16 03:09:29;;;;;;;2.33;1.77;;;14.90;99.90;;;;;;5009475;28;20088;-85
2023/06/16 03:11:56;;;;;;;2.50;1.80;;;14.90;99.90;;;;;;4992923;28;20050;-86
2023/06/16 03:14:23;;;;;;;1.70;1.40;;;15.00;99.90;;;;;;5009946;28;20073;-86
2023/06/16 03:16:50;;;;;;;3.00;1.83;;;15.00;99.90;;;;;;4992712;28;20453;-85
2023/06/16 03:19:18;;;;;;;2.10;1.70;;;14.90;99.90;;;;;;5010587;28;20194;-86
2023/06/16 03:21:44;;;;;;;2.58;1.85;;;14.90;99.90;;;;;;5008580;28;20449;-85
2023/06/16 03:24:13;;;;;;;1.88;1.60;;;14.80;99.90;;;;;;4992464;28;20493;-86
2023/06/16 03:26:40;;;;;;;2.38;2.00;;;14.80;99.90;;;;;;5008576;28;20082;-85
2023/06/16 03:29:07;;;;;;;2.63;1.77;;;14.80;99.90;;;;;;5008392;28;20228;-86
2023/06/16 03:31:34;;;;;;;2.28;1.95;;;14.70;99.90;;;;;;4992322;28;20148;-84
2023/06/16 03:34:01;;;;;;;2.00;1.63;;;14.70;99.90;;;;;;4992956;28;20073;-86
2023/06/16 03:36:48;;;;;;;2.45;1.77;;;14.70;99.90;;;;;;5008195;28;20046;-86
2023/06/16 03:39:15;;;;;;;2.28;1.60;;;14.70;99.90;;;;;;5006947;28;20073;-86
2023/06/16 03:41:42;;;;;;;3.05;2.03;;;14.60;99.90;;;;;;5009068;28;20104;-86
2023/06/16 03:44:09;;;;;;;1.90;1.63;;;14.60;99.90;;;;;;4995764;28;20050;-86
2023/06/16 03:46:36;;;;;;;1.70;1.52;;;14.50;99.90;;;;;;4988417;28;20092;-86
2023/06/16 03:49:02;;;;;;;2.55;2.15;;;14.50;99.90;;;;;;4986457;28;20080;-85
2023/06/16 03:51:29;;;;;;;2.60;1.50;;;14.50;99.90;;;;;;5007854;28;20108;-86
2023/06/16 03:53:57;;;;;;;1.77;1.48;;;14.50;99.90;;;;;;5001062;28;20046;-86
2023/06/16 03:56:24;;;;;;;2.40;1.73;;;14.50;99.90;;;;;;5008161;28;20108;-87
2023/06/16 03:58:51;;;;;;;2.30;1.90;;;14.50;99.90;;;;;;5008105;28;20073;-86
2023/06/16 04:01:21;;;;;;;2.78;1.83;;;14.50;99.90;;;;;;4992828;28;20054;-86
2023/06/16 04:03:49;;;;;;;2.17;1.35;;;14.50;99.90;;;;;;5009077;28;20042;-86
2023/06/16 04:06:16;;;;;;;2.20;1.45;;;14.50;99.90;;;;;;5008781;28;20495;-86
2023/06/16 04:08:46;;;;;;;2.10;1.63;;;14.40;99.90;;;;;;5008533;28;20389;-85
2023/06/16 04:11:16;;;;;;;3.17;2.10;;;14.40;99.90;;;;;;4993416;28;20057;-86
2023/06/16 04:13:43;;;;;;;3.15;1.83;;;14.40;99.90;;;;;;5008493;28;20042;-86
2023/06/16 04:16:10;;;;;;;2.30;1.95;;;14.40;99.90;;;;;;4992023;28;20050;-87
2023/06/16 04:18:37;;;;;;;2.33;1.70;;;14.50;99.90;;;;;;5008267;28;20046;-85
2023/06/16 04:21:03;;;;;;;3.17;2.13;;;14.50;99.90;;;;;;5007821;28;20046;-85
2023/06/16 04:23:30;;;;;;;2.88;2.05;;;14.50;99.90;;;;;;4991561;28;20056;-86
2023/06/16 04:25:58;;;;;;;2.55;2.00;;;14.50;99.90;;;;;;4991277;28;20054;-86
2023/06/16 04:28:25;;;;;;;2.53;2.08;;;14.50;99.90;;;;;;4991585;28;20413;-86
2023/06/16 04:30:52;;;;;;;2.70;1.70;;;14.50;99.90;;;;;;5008177;28;20054;-85
2023/06/16 04:33:22;;;;;;;2.90;1.85;;;14.50;99.90;;;;;;4991094;28;20058;-86
2023/06/16 04:35:50;;;;;;;2.83;1.92;;;14.60;99.90;;;;;;4990055;28;20062;-86
2023/06/16 04:38:18;;;;;;;2.42;1.85;;;14.60;99.90;;;;;;4991359;28;20064;-86
2023/06/16 04:40:45;;;;;;;3.25;1.98;;;14.70;99.90;;;;;;5008095;28;20046;-86
2023/06/16 04:43:11;;;;;;;3.88;2.05;;;14.70;99.90;;;;;;5006807;28;20081;-86
2023/06/16 04:45:38;;;;;;;1.90;1.55;;;14.70;99.90;;;;;;5006950;28;20057;-87
2023/06/16 04:48:05;;;;;;;2.60;1.90;;;14.70;99.90;;;;;;5004991;28;20472;-86
2023/06/16 04:50:32;;;;;;;2.22;1.83;;;14.70;99.90;;;;;;4972953;28;20046;-85
2023/06/16 04:53:00;;;;;;;2.25;1.70;;;14.80;99.90;;;;;;4972966;28;20056;-85
2023/06/16 04:55:27;;;;;;;2.00;1.60;;;14.80;99.90;;;;;;5006274;28;20052;-86
2023/06/16 04:57:53;;;;;;;2.13;1.75;;;14.90;99.90;;;;;;5004979;28;20095;-86
2023/06/16 05:00:20;;;;;;;2.20;1.67;;;14.90;99.90;;;;;;5005252;28;20121;-86
2023/06/16 05:02:48;;;;;;;1.50;1.38;;;15.00;99.90;;;;;;5001294;28;20124;-86
2023/06/16 05:05:15;;;;;;;1.92;1.52;;;15.00;99.90;;;;;;5002627;28;20398;-83
2023/06/16 05:07:42;;;;;;;1.75;1.42;;;15.10;99.90;;;;;;5002713;28;20125;-80
2023/06/16 05:10:08;;;;;;;2.22;1.90;;;15.10;99.90;;;;;;5005998;28;20046;-85
2023/06/16 05:12:35;;;;;;;1.92;1.40;;;15.20;99.90;;;;;;5003369;28;20061;-87
2023/06/16 05:15:02;;;;;;;2.10;1.63;;;15.20;99.90;;;;;;5004703;28;20046;-86
2023/06/16 05:17:30;;;;;;;1.80;1.40;;;15.30;99.90;;;;;;4989049;28;20137;-87
2023/06/16 05:19:57;;;;;;;1.80;1.30;;;15.30;99.90;;;;;;4973316;28;20042;-86
2023/06/16 05:22:23;;;;;;;1.98;1.38;;;15.40;99.90;;;;;;4987511;28;20100;-87
2023/06/16 05:24:54;;;;;;;2.28;1.92;;;15.50;99.90;;;;;;5005023;28;20054;-86
2023/06/16 05:27:22;;;;;;;1.75;1.27;;;15.50;99.90;;;;;;4988568;28;20126;-82
2023/06/16 05:29:53;;;;;;;2.05;1.30;;;15.60;99.90;;;;;;5003288;28;20233;-86
2023/06/16 05:32:21;;;;;;;1.83;1.63;;;15.60;99.90;;;;;;4969926;28;20132;-87
2023/06/16 05:34:50;;;;;;;1.88;1.48;;;15.70;99.90;;;;;;4967110;28;20042;-86
2023/06/16 05:37:18;;;;;;;3.90;1.55;;;15.80;99.90;;;;;;5003821;28;20053;-87
2023/06/16 05:39:45;;;;;;;1.50;1.20;;;15.90;99.90;;;;;;4987393;28;20057;-86
2023/06/16 05:42:13;;;;;;;1.80;1.58;;;16.00;99.90;;;;;;5003708;28;20929;-87
2023/06/16 05:44:41;;;;;;;1.73;1.42;;;16.00;99.90;;;;;;4987859;28;20042;-87
2023/06/16 05:47:08;;;;;;;2.20;1.30;;;16.10;99.90;;;;;;5001202;28;20054;-89
2023/06/16 05:49:35;;;;;;;2.13;1.80;;;16.10;99.90;;;;;;5002717;28;20080;-88
2023/06/16 05:52:05;;;;;;;2.70;2.00;;;16.20;99.90;;;;;;4989508;28;20116;-92
2023/06/16 05:54:32;;;;;;;2.72;1.83;;;16.20;99.90;;;;;;4991839;28;20050;-89
2023/06/16 05:56:59;;;;;;;1.95;1.60;;;16.40;99.90;;;;;;4973120;28;20069;-87
2023/06/16 05:59:26;;;;;;;2.38;1.85;;;16.50;99.90;;;;;;5005202;28;20054;-86
2023/06/16 06:01:53;;;;;;;3.15;2.10;;;16.50;99.90;;;;;;4981518;28;20041;-78
2023/06/16 06:04:25;;;;;;;2.70;1.90;;;16.60;99.90;;;;;;4998078;28;20116;-79
2023/06/16 06:06:52;;;;;;;2.30;1.70;;;16.60;99.90;;;;;;4984164;28;20053;-79
2023/06/16 06:09:19;;;;;;;2.00;1.55;;;16.70;99.90;;;;;;5001880;28;20054;-79
2023/06/16 06:11:46;;;;;;;1.90;1.40;;;16.70;99.90;;;;;;5001445;28;20054;-79
2023/06/16 06:14:13;;;;;;;2.33;1.80;;;16.80;99.90;;;;;;4997355;28;20057;-77
2023/06/16 06:16:40;;;;;;;2.13;1.70;;;16.90;99.90;;;;;;4973099;28;20085;-77
2023/06/16 06:19:07;;;;;;;2.70;1.90;;;16.90;99.90;;;;;;4982582;28;20101;-78
2023/06/16 06:21:35;;;;;;;3.15;1.70;;;16.90;99.90;;;;;;5005205;28;20600;-78
2023/06/16 06:24:02;;;;;;;5.28;2.28;;;17.00;99.90;;;;;;5001604;28;20107;-77
2023/06/16 06:26:29;;;;;;;2.15;1.80;;;17.10;99.90;;;;;;5002187;28;20054;-77
2023/06/16 06:28:56;;;;;;;2.28;1.67;;;17.10;99.90;;;;;;5001406;28;20065;-78
2023/06/16 06:31:23;;;;;;;2.05;1.70;;;17.20;99.90;;;;;;5005192;28;20086;-78
2023/06/16 06:33:50;;;;;;;6.32;2.25;;;17.30;99.90;;;;;;5004824;28;20608;-78
2023/06/16 06:36:25;;;;;;;2.20;1.80;;;17.30;99.90;;;;;;5004839;28;20119;-77
2023/06/16 06:38:52;;;;;;;2.10;1.50;;;17.40;99.90;;;;;;5005043;28;20062;-78
2023/06/16 06:41:21;;;;;;;1.83;1.50;;;17.50;99.90;;;;;;4963005;28;20053;-77
2023/06/16 06:43:50;;;;;;;2.47;1.70;;;17.50;99.90;;;;;;4998499;28;20042;-78
2023/06/16 06:46:17;;;;;;;1.60;1.38;;;17.60;99.90;;;;;;4996799;28;20543;-78
2023/06/16 06:48:44;;;;;;;2.03;1.60;;;17.70;99.90;;;;;;5003111;28;20341;-78
2023/06/16 06:51:13;;;;;;;2.28;1.80;;;17.70;99.90;;;;;;4981315;28;20050;-77
2023/06/16 06:53:40;;;;;;;3.15;2.40;;;17.80;99.90;;;;;;4984108;28;20537;-77
2023/06/16 06:56:07;;;;;;;3.33;2.25;;;17.90;99.90;;;;;;4968025;28;20049;-78
2023/06/16 06:58:34;;;;;;;3.25;2.45;;;17.90;99.90;;;;;;5002862;28;20366;-77
2023/06/16 07:01:00;;;;;;;3.47;2.10;;;18.00;99.90;;;;;;5000727;28;20417;-77
2023/06/16 07:03:27;;;;;;;2.10;1.80;;;18.10;99.90;;;;;;4999577;28;20404;-78
2023/06/16 07:05:54;;;;;;;2.45;1.98;;;18.10;99.90;;;;;;4995453;28;20568;-78
2023/06/16 07:08:21;;;;;;;2.35;1.77;;;18.20;99.90;;;;;;4982940;28;20049;-78
2023/06/16 07:10:48;;;;;;;2.83;2.05;;;18.30;99.90;;;;;;4997799;28;20419;-78
2023/06/16 07:13:15;;;;;;;2.05;1.70;;;18.40;99.90;;;;;;5005189;28;20073;-78
2023/06/16 07:15:42;;;;;;;2.63;1.73;;;18.40;99.90;;;;;;4997939;28;20106;-78
2023/06/16 07:18:09;;;;;;;3.42;2.08;;;18.50;99.90;;;;;;5003052;28;20446;-78
2023/06/16 07:20:36;;;;;;;2.10;1.60;;;18.60;99.90;;;;;;4985633;28;20041;-77
2023/06/16 07:23:03;;;;;;;3.20;1.63;;;18.60;99.90;;;;;;5001805;28;20152;-77
2023/06/16 07:25:32;;;;;;;1.77;1.45;;;18.70;99.90;;;;;;5013968;28;20093;-76
2023/06/16 07:27:59;;;;;;;2.10;1.45;;;18.70;99.90;;;;;;4987649;28;20054;-77
2023/06/16 07:30:26;;;;;;;2.17;1.67;;;18.80;99.90;;;;;;5000882;28;20046;-79
2023/06/16 07:32:53;;;;;;;1.95;1.48;;;18.90;99.90;;;;;;4984313;28;20949;-77
2023/06/16 07:35:20;;;;;;;2.05;1.70;;;19.00;99.90;;;;;;4984696;28;20052;-77
2023/06/16 07:37:47;;;;;;;1.73;1.48;;;19.10;99.90;;;;;;5004109;28;20049;-77
2023/06/16 07:40:14;;;;;;;1.90;1.30;;;19.10;99.90;;;;;;5002573;28;20149;-77
2023/06/16 07:42:44;;;;;;;3.13;1.60;;;19.20;99.90;;;;;;5001997;28;20169;-77
2023/06/16 07:45:11;;;;;;;1.90;1.70;;;19.20;99.90;;;;;;4991788;28;20054;-77
2023/06/16 07:47:39;;;;;;;3.03;1.90;;;19.30;99.90;;;;;;4984192;28;20116;-77
2023/06/16 07:50:07;;;;;;;1.75;1.48;;;19.40;99.20;;;;;;4987699;28;20046;-77
2023/06/16 07:52:34;;;;;;;2.40;1.40;;;19.40;98.70;;;;;;5002715;28;20058;-77
2023/06/16 07:55:01;;;;;;;2.33;1.60;;;19.50;98.50;;;;;;4986523;28;20143;-77
2023/06/16 07:57:27;;;;;;;3.15;1.63;;;19.50;98.90;;;;;;5001634;28;20065;-77
2023/06/16 07:59:57;;;;;;;1.75;1.42;;;19.60;98.70;;;;;;5004411;28;20052;-77
2023/06/16 08:02:23;;;;;;;1.80;1.58;;;19.60;99.20;;;;;;5003240;28;20054;-78
2023/06/16 08:04:51;;;;;;;2.10;1.85;;;19.70;99.40;;;;;;4987503;28;20042;-77
2023/06/16 08:07:17;;;;;;;3.03;1.73;;;19.80;99.30;;;;;;4999002;28;20042;-77
2023/06/16 08:09:44;;;;;;;2.45;1.48;;;19.80;98.10;;;;;;5000424;28;20104;-77
2023/06/16 08:12:11;;;;;;;1.70;1.30;;;19.90;98.00;;;;;;5000027;28;20054;-77
2023/06/16 08:14:38;;;;;;;1.77;1.42;;;20.00;97.10;;;;;;5001685;28;20045;-77
2023/06/16 08:17:05;;;;;;;1.73;1.40;;;20.10;95.70;;;;;;5005919;28;20509;-76
2023/06/16 08:19:32;;;;;;;2.17;1.70;;;20.20;95.30;;;;;;5002784;28;20433;-77
2023/06/16 08:21:59;;;;;;;2.65;1.30;;;20.30;95.00;;;;;;5019324;28;20060;-77
2023/06/16 08:24:26;;;;;;;1.70;1.48;;;20.40;94.80;;;;;;4999608;28;20144;-77
2023/06/16 08:26:53;;;;;;;1.60;1.27;;;20.50;94.60;;;;;;5006917;28;20041;-77
2023/06/16 08:29:20;;;;;;;1.50;1.30;;;20.60;94.60;;;;;;5014489;28;20053;-77
2023/06/16 08:31:48;;;;;;;1.85;1.23;;;20.60;94.20;;;;;;5004021;28;20085;-77
2023/06/16 08:34:15;;;;;;;2.25;1.25;;;20.70;93.70;;;;;;4969272;28;20042;-79
2023/06/16 08:36:42;;;;;;;1.45;1.27;;;20.70;93.80;;;;;;5011103;28;20050;-77
2023/06/16 08:39:09;;;;;;;2.00;1.30;;;20.70;94.00;;;;;;4982527;28;20100;-76
2023/06/16 08:41:37;;;;;;;2.45;1.50;;;20.80;93.50;;;;;;5002928;28;20422;-76
2023/06/16 08:44:04;;;;;;;1.85;1.42;;;20.70;93.40;;;;;;4986187;28;20062;-76
2023/06/16 08:46:31;;;;;;;2.28;1.40;;;20.80;94.60;;;;;;5002023;28;20057;-75
2023/06/16 08:48:58;;;;;;;1.23;1.10;;;20.90;93.80;;;;;;5000683;28;20058;-77
2023/06/16 08:51:25;;;;;;;1.70;1.30;;;21.00;92.80;;;;;;4982994;28;20050;-77
2023/06/16 08:53:54;;;;;;;2.10;1.40;;;21.10;92.70;;;;;;5002032;28;20054;-77
2023/06/16 08:56:21;;;;;;;1.63;1.17;;;21.10;93.00;;;;;;5001375;28;20053;-77
2023/06/16 08:58:48;;;;;;;1.70;1.38;;;21.30;93.50;;;;;;5007125;28;20057;-77
2023/06/16 09:01:14;;;;;;;1.77;1.30;;;21.30;92.60;;;;;;5009034;28;20121;-77
2023/06/16 09:03:41;;;;;;;3.53;1.40;;;21.40;92.80;;;;;;4996427;28;20511;-77
2023/06/16 09:06:10;;;;;;;1.70;1.30;;;21.40;92.70;;;;;;5007801;28;20596;-77
2023/06/16 09:08:37;;;;;;;2.00;1.38;;;21.40;91.70;;;;;;5002280;28;20323;-77
2023/06/16 09:11:07;;;;;;;2.35;1.63;;;21.50;92.20;;;;;;5002950;28;20481;-77
2023/06/16 09:13:34;;;;;;;1.88;1.35;;;21.50;92.50;;;;;;5001727;28;20501;-77
2023/06/16 09:16:01;;;;;;;2.65;1.58;;;21.60;92.80;;;;;;5001039;28;20077;-77
2023/06/16 09:18:37;;;;;;;1.85;1.50;;;21.60;92.20;;;;;;4987485;28;20476;-78
2023/06/16 09:21:08;;;;;;;2.17;1.58;;;21.70;92.50;;;;;;5000417;28;20074;-75
2023/06/16 09:23:35;;;;;;;2.33;1.38;;;21.80;93.10;;;;;;4982748;28;20171;-76
2023/06/16 09:26:11;;;;;;;1.85;1.55;;;21.80;92.70;;;;;;4999095;28;20049;-76
2023/06/16 09:28:39;;;;;;;2.13;1.40;;;22.00;92.20;;;;;;5000166;28;20111;-76
2023/06/16 09:31:07;;;;;;;2.53;1.52;;;22.00;90.70;;;;;;5002548;28;20062;-76
2023/06/16 09:33:40;;;;;;;2.25;1.52;;;22.10;90.70;;;;;;4999816;28;20057;-76
2023/06/16 09:36:08;;;;;;;1.92;1.35;;;22.10;90.20;;;;;;5000378;28;20046;-76
2023/06/16 09:38:36;;;;;;;1.85;1.40;;;22.20;91.20;;;;;;5000942;28;20046;-77
2023/06/16 09:41:15;;;;;;;2.40;1.65;;;22.30;90.30;;;;;;4970831;28;20115;-77
2023/06/16 09:43:42;;;;;;;1.40;1.15;;;22.40;90.10;;;;;;5002362;28;20081;-76
2023/06/16 09:46:11;;;;;;;1.80;1.52;;;22.60;90.20;;;;;;5006279;28;20096;-76
2023/06/16 09:48:47;;;;;;;1.60;1.38;;;22.70;89.70;;;;;;5005862;28;20042;-76
2023/06/16 09:51:18;;;;;;;2.40;1.40;;;22.70;89.20;;;;;;5007280;28;20546;-77
2023/06/16 09:53:46;;;;;;;1.42;1.33;;;22.90;90.20;;;;;;5000466;28;20052;-77
2023/06/16 09:56:19;;;;;;;1.60;1.40;;;23.00;90.20;;;;;;5003552;28;20042;-77
2023/06/16 09:58:46;;;;;;;2.03;1.73;;;23.10;89.40;;;;;;5006337;28;20417;-77
2023/06/16 10:01:14;;;;;;;2.90;2.17;;;23.20;88.70;;;;;;5006968;28;20077;-77
2023/06/16 10:03:43;;;;;;;2.90;1.60;;;23.20;87.40;;;;;;5017854;28;20419;-77
2023/06/16 10:06:14;;;;;;;2.70;1.92;;;23.30;87.20;;;;;;5012786;28;20486;-77
2023/06/16 10:08:41;;;;;;;2.40;1.88;;;23.40;86.40;;;;;;5006933;28;20073;-78
2023/06/16 10:11:09;;;;;;;1.60;1.38;;;23.60;88.40;;;;;;5002652;28;20225;-77
2023/06/16 10:13:37;;;;;;;1.88;1.50;;;23.70;84.80;;;;;;5004401;28;20121;-78
2023/06/16 10:16:05;;;;;;;1.40;1.20;;;23.70;87.60;;;;;;5011300;28;20093;-78
2023/06/16 10:18:32;;;;;;;1.88;1.17;;;23.90;86.60;;;;;;5004191;28;20045;-77
2023/06/16 10:20:59;;;;;;;1.20;1.05;;;24.00;85.80;;;;;;5012591;28;20049;-78
2023/06/16 10:23:25;;;;;;;2.05;1.58;;;24.00;86.00;;;;;;5009566;28;20196;-77
2023/06/16 10:25:52;;;;;;;1.80;1.40;;;24.10;84.80;;;;;;5002506;28;20095;-78
2023/06/16 10:28:20;;;;;;;1.98;1.50;;;24.20;85.80;;;;;;4995659;28;20054;-77
2023/06/16 10:30:48;;;;;;;2.55;1.58;;;24.40;85.10;;;;;;4987831;28;20100;-77
2023/06/16 10:33:22;;;;;;;1.85;1.67;;;24.40;83.70;;;;;;4991724;28;20049;-77
2023/06/16 10:35:56;;;;;;;2.53;2.20;;;24.30;84.70;;;;;;5006248;28;20760;-77
2023/06/16 10:38:41;;;;;;;3.13;1.77;;;24.40;81.20;;;;;;5008128;28;20163;-77
2023/06/16 10:41:14;;;;;;;2.15;1.88;;;24.60;81.10;;;;;;5000977;28;20138;-77
2023/06/16 10:43:41;;;;;;;3.05;1.83;;;24.70;81.20;;;;;;5000227;28;20153;-77
2023/06/16 10:46:15;;;;;;;2.10;1.58;;;24.80;83.50;;;;;;4988691;28;20077;-77
2023/06/16 10:49:09;;;;;;;1.73;1.50;;;24.90;81.40;;;;;;5003678;28;20054;-77
2023/06/16 10:51:48;;;;;;;2.22;1.48;;;25.10;81.90;;;;;;4988555;28;20047;-77
2023/06/16 10:54:37;;;;;;;1.77;1.25;;;25.20;79.20;;;;;;4997920;28;20052;-80
2023/06/16 10:57:07;;;;;;;2.28;1.48;;;25.20;82.00;;;;;;4994872;28;20111;-77
2023/06/16 11:00:10;;;;;;;1.13;0.90;;;25.30;79.80;;;;;;5004179;28;20065;-78
2023/06/16 11:03:00;;;;;;;1.90;1.40;;;25.60;80.20;;;;;;5005318;28;20060;-77
2023/06/16 11:05:39;;;;;;;1.40;1.25;;;25.90;80.30;;;;;;5008985;28;20046;-84
2023/06/16 11:08:08;;;;;;;2.70;1.30;;;26.10;77.80;;;;;;5003042;28;20583;-76
2023/06/16 11:10:56;;;;;;;1.45;1.00;;;26.20;78.60;;;;;;4998291;28;20162;-77
2023/06/16 11:13:25;;;;;;;1.77;1.40;;;26.40;78.10;;;;;;4989590;28;20061;-78
2023/06/16 11:15:53;;;;;;;1.85;1.30;;;26.40;77.80;;;;;;4997837;28;20484;-78
2023/06/16 11:18:26;;;;;;;1.58;1.48;;;26.50;78.50;;;;;;4997923;28;20825;-79
2023/06/16 11:20:56;;;;;;;;;;;26.70;79.70;;;;;;4994968;28;20464;-80
2023/06/16 11:23:23;;;;;;;2.35;1.75;;;26.70;77.40;;;;;;5001313;28;19936;-79
2023/06/16 11:25:50;;;;;;;1.52;1.20;;;26.70;75.90;;;;;;4980753;28;20149;-77
2023/06/16 11:28:20;;;;;;;1.90;1.10;;;26.80;75.70;;;;;;5012149;28;20057;-78
2023/06/16 11:30:48;;;;;;;1.80;1.42;;;27.00;75.60;;;;;;4997754;28;20144;-79
2023/06/16 11:33:16;;;;;;;2.35;1.45;;;27.20;78.10;;;;;;4996655;28;20539;-77
2023/06/16 11:35:43;;;;;;;1.48;1.20;;;27.50;77.80;;;;;;4999144;28;20136;-80
2023/06/16 11:38:10;;;;;;;1.52;1.40;;;27.70;75.90;;;;;;4997639;28;20061;-75
2023/06/16 11:40:37;;;;;;;2.22;1.50;;;27.80;76.10;;;;;;4990345;28;20493;-76
2023/06/16 11:43:07;;;;;;;1.48;1.38;;;27.90;74.70;;;;;;4999561;28;20524;-76
2023/06/16 11:45:36;;;;;;;1.83;1.25;;;28.00;75.30;;;;;;4979430;28;20080;-80
2023/06/16 11:48:08;;;;;;;1.50;1.10;;;28.10;73.00;;;;;;4997768;28;20050;-79
2023/06/16 11:50:35;;;;;;;1.27;1.08;;;28.30;74.90;;;;;;5003244;28;20159;-80
2023/06/16 11:53:02;;;;;;;1.27;1.15;;;28.50;76.00;;;;;;4999042;28;20144;-79
2023/06/16 11:55:29;;;;;;;1.50;1.35;;;28.80;74.00;;;;;;4997117;28;20121;-77
2023/06/16 11:57:57;;;;;;;1.60;1.33;;;29.10;73.60;;;;;;4994404;28;20516;-78
2023/06/16 12:00:26;;;;;;;1.42;1.33;;;29.20;74.00;;;;;;4996717;28;20356;-78
2023/06/16 12:02:53;;;;;;;2.13;1.60;;;29.40;74.20;;;;;;4997282;28;20583;-76
2023/06/16 12:05:26;;;;;;;2.75;2.10;;;29.50;71.60;;;;;;4996566;28;20465;-78
2023/06/16 12:07:53;;;;;;;1.60;1.45;;;29.50;71.50;;;;;;4993469;28;20046;-76
2023/06/16 12:10:22;;;;;;;2.42;1.70;;;29.60;71.10;;;;;;4999081;28;20069;-76
2023/06/16 12:12:49;;;;;;;1.80;1.70;;;29.40;71.10;;;;;;4983130;28;20052;-77
2023/06/16 12:15:17;;;;;;;2.08;1.65;;;29.40;71.30;;;;;;4980901;28;20690;-76
2023/06/16 12:17:44;;;;;;;1.90;1.70;;;29.60;68.70;;;;;;4997259;28;20053;-75
2023/06/16 12:20:15;;;;;;;1.73;1.40;;;29.70;68.50;;;;;;4997053;28;20677;-76
2023/06/16 12:22:44;;;;;;;1.90;1.50;;;30.10;71.00;;;;;;4997753;28;20109;-77
2023/06/16 12:25:13;;;;;;;1.48;1.30;;;30.50;70.60;;;;;;4998883;28;20053;-77
2023/06/16 12:27:49;;;;;;;2.65;1.30;;;30.80;69.00;;;;;;4996232;28;20052;-77
2023/06/16 12:30:15;;;;;;;1.60;1.30;;;31.10;70.10;;;;;;4996820;28;20486;-77
2023/06/16 12:32:43;;;;;;;1.30;1.20;;;31.00;67.50;;;;;;4997964;28;20456;-77
2023/06/16 12:35:11;;;;;;;1.30;1.15;;;31.00;66.80;;;;;;4998039;28;20064;-77
2023/06/16 12:37:41;;;;;;;1.65;1.20;;;31.40;65.80;;;;;;4997104;28;20409;-77
2023/06/16 12:40:11;;;;;;;1.80;1.15;;;31.70;66.90;;;;;;4965500;28;20161;-78
2023/06/16 12:42:40;;;;;;;1.15;1.05;;;32.10;67.80;;;;;;4997104;28;20058;-77
2023/06/16 12:45:07;;;;;;;1.20;1.10;;;31.90;66.40;;;;;;4996799;28;20134;-76
2023/06/16 12:47:35;;;;;;;1.42;1.20;;;31.80;64.20;;;;;;4998028;28;20112;-78
2023/06/16 12:50:04;;;;;;;1.48;1.33;;;31.90;66.10;;;;;;4997868;28;20084;-76
2023/06/16 12:52:30;;;;;;;1.20;1.08;;;32.30;64.80;;;;;;4997083;28;20108;-75
2023/06/16 12:54:59;;;;;;;2.05;1.10;;;32.70;66.30;;;;;;4994320;28;20085;-75